Main page
METAR-TAF:

METAR-TAF

Airports :

Palma de Mallorca Airport

Palma de Mallorca, Spain

latitude: 39-33N, longitude: 002-44E, elevation: 4 m

Current weather observation

The report was made 15 minutes ago, at 21:00 UTC
Calm wind
Temperature 9°C
Humidity 87%
Pressure 1023 hPa
Visibility 10 km or more
Few clouds at a height of 2000 ft

METAR: LEPA 102100Z 00000KT 9999 FEW020 09/07 Q1023 NOSIG

Time: 22:15 (21:15 UTC)

Forecast

The report was made 4 hours and 15 minutes ago, at 17:00 UTC
Forecast valid from 10 at 18 UTC to 11 at 18 UTC
Wind 3 kt from variable directions
Visibility 10 km or more
Few clouds at a height of 2000 ft
Becoming
from 11 at 10 UTC to 11 at 12 UTC
Wind 10 kt from the Southwest
Becoming
from 11 at 14 UTC to 11 at 16 UTC
Wind 12 kt from the Northwest

TAF: LEPA 101700Z 1018/1118 VRB03KT 9999 FEW020 TX17/1112Z TN07/1106Z BECMG 1110/1112 23010KT BECMG 1114/1116 31012KT

Weather observations and forecasts of more than 4000 airports (METAR and TAF reports).

The available stations are represented by yellow and red dots on the map.

Hover mouse over dot to see the name of the station.

Then click to see weather observations and forecasts.

To change the map : click on the green buttons with a black cross to zoom in, on the green button with a dash to zoom out, or on the green arrows for adjacent maps.


METAR-TAF: